Time;durP1;ratioP1;P1;durP2;ratioP2;P2;SDS_P1;SDS_P2;PMS_P1;PMS_P2;Temp;Humidity;BMP_temperature;BMP_pressure;BME280_temperature;BME280_humidity;BME280_pressure;Samples;Min_cycle;Max_cycle;Signal;HPM_P1;HPM_P2
2024/02/29 00:00:19;;;;;;;6.80;1.15;;;27.20;40.80;;;;;;5107006;28;20117;-48
2024/02/29 00:02:45;;;;;;;2.70;0.90;;;27.00;41.20;;;;;;5107631;28;20152;-49
2024/02/29 00:05:12;;;;;;;7.03;1.50;;;26.90;41.30;;;;;;5109128;28;20075;-50
2024/02/29 00:07:39;;;;;;;6.00;1.15;;;26.90;40.90;;;;;;5108851;28;20186;-48
2024/02/29 00:10:07;;;;;;;6.93;0.90;;;27.00;41.10;;;;;;5108523;28;20076;-51
2024/02/29 00:12:33;;;;;;;5.28;1.05;;;26.80;41.10;;;;;;5106070;28;20151;-47
2024/02/29 00:15:00;;;;;;;7.35;1.20;;;26.90;41.00;;;;;;5108642;28;20068;-49
2024/02/29 00:17:26;;;;;;;6.65;1.25;;;26.90;41.60;;;;;;5107818;28;20107;-46
2024/02/29 00:19:52;;;;;;;11.20;1.30;;;26.80;41.10;;;;;;5108388;28;20518;-48
2024/02/29 00:22:19;;;;;;;7.38;1.27;;;26.60;41.10;;;;;;5100820;28;20513;-55
2024/02/29 00:24:46;;;;;;;9.30;1.20;;;26.60;41.20;;;;;;5107111;28;20116;-49
2024/02/29 00:27:12;;;;;;;12.65;1.45;;;26.40;40.90;;;;;;5106728;28;20128;-47
2024/02/29 00:29:38;;;;;;;4.68;1.35;;;26.40;40.80;;;;;;5103573;28;20080;-49
2024/02/29 00:32:07;;;;;;;4.30;0.80;;;26.40;40.90;;;;;;5106084;28;20167;-48
2024/02/29 00:34:34;;;;;;;7.28;1.23;;;26.40;40.80;;;;;;5106709;28;20087;-49
2024/02/29 00:37:00;;;;;;;6.00;1.77;;;26.30;40.50;;;;;;5103240;28;20095;-49
2024/02/29 00:39:27;;;;;;;9.50;2.22;;;26.20;40.70;;;;;;5108055;28;20072;-47
2024/02/29 00:41:53;;;;;;;9.90;3.08;;;26.20;40.80;;;;;;5106545;28;20074;-48
2024/02/29 00:44:19;;;;;;;6.20;1.67;;;26.10;40.50;;;;;;5107552;28;20083;-49
2024/02/29 00:46:46;;;;;;;15.57;8.43;;;26.00;40.20;;;;;;5110327;28;20145;-48
2024/02/29 00:49:14;;;;;;;2.80;1.10;;;25.90;40.10;;;;;;5109169;28;20509;-58
2024/02/29 00:51:40;;;;;;;11.05;1.38;;;25.80;40.10;;;;;;5090433;28;20073;-48
2024/02/29 00:54:06;;;;;;;5.57;1.23;;;25.70;40.10;;;;;;5090510;28;20072;-47
2024/02/29 00:56:33;;;;;;;5.68;1.35;;;25.60;40.00;;;;;;5098375;28;20183;-54
2024/02/29 00:58:59;;;;;;;6.90;1.30;;;25.60;40.80;;;;;;5106719;28;20614;-49
2024/02/29 01:01:26;;;;;;;11.95;1.60;;;25.60;40.30;;;;;;5107113;28;20078;-50
2024/02/29 01:03:52;;;;;;;6.22;1.30;;;25.50;40.40;;;;;;5101273;28;20076;-48
2024/02/29 01:06:19;;;;;;;9.60;1.40;;;25.50;40.40;;;;;;5106493;28;20540;-47
2024/02/29 01:08:45;;;;;;;4.18;1.13;;;25.40;40.00;;;;;;5108549;28;20151;-52
2024/02/29 01:11:12;;;;;;;6.88;1.60;;;25.30;39.90;;;;;;5092620;28;20076;-49
2024/02/29 01:13:39;;;;;;;11.00;1.70;;;25.30;39.90;;;;;;5105021;28;20079;-48
2024/02/29 01:16:05;;;;;;;13.68;1.83;;;25.20;39.50;;;;;;5105213;28;20469;-49
2024/02/29 01:18:32;;;;;;;6.82;1.23;;;25.10;39.70;;;;;;5104481;28;20091;-53
2024/02/29 01:20:58;;;;;;;5.63;1.65;;;25.00;39.50;;;;;;5104103;28;20084;-49
2024/02/29 01:23:25;;;;;;;9.50;1.90;;;25.00;39.80;;;;;;5111988;28;20075;-49
2024/02/29 01:25:51;;;;;;;9.93;2.42;;;24.90;39.70;;;;;;5112009;28;20095;-49
2024/02/29 01:28:18;;;;;;;8.27;1.65;;;24.80;39.90;;;;;;5109470;28;20942;-49
2024/02/29 01:30:44;;;;;;;14.82;2.20;;;24.70;39.90;;;;;;5105623;28;20487;-49
2024/02/29 01:33:11;;;;;;;4.13;1.42;;;24.60;40.20;;;;;;5109992;28;20067;-48
2024/02/29 01:35:37;;;;;;;4.82;1.50;;;24.50;39.90;;;;;;5110812;28;20595;-49
2024/02/29 01:38:04;;;;;;;12.80;2.15;;;24.50;40.10;;;;;;5109927;28;20108;-49
2024/02/29 01:40:31;;;;;;;10.77;2.00;;;24.40;40.20;;;;;;5109506;28;20072;-50
2024/02/29 01:42:57;;;;;;;12.20;3.00;;;24.30;40.40;;;;;;5108356;28;20075;-50
2024/02/29 01:45:24;;;;;;;13.38;3.03;;;24.20;40.70;;;;;;5110879;28;20088;-48
2024/02/29 01:47:50;;;;;;;10.23;2.70;;;24.10;41.30;;;;;;5101249;28;20080;-51
2024/02/29 01:50:19;;;;;;;12.98;2.47;;;24.00;40.80;;;;;;5110460;28;20076;-51
2024/02/29 01:52:46;;;;;;;22.70;4.30;;;23.90;41.40;;;;;;5106854;28;20700;-52
2024/02/29 01:55:13;;;;;;;20.52;4.13;;;23.80;41.80;;;;;;5110429;28;20445;-50
2024/02/29 01:57:40;;;;;;;20.48;4.10;;;23.70;41.90;;;;;;5109379;28;20111;-52
2024/02/29 02:00:08;;;;;;;22.83;4.80;;;23.60;42.10;;;;;;5101319;28;20106;-48
2024/02/29 02:02:37;;;;;;;21.10;3.83;;;23.50;42.50;;;;;;5107976;28;20064;-50
2024/02/29 02:05:06;;;;;;;15.20;3.10;;;23.40;42.90;;;;;;5108176;28;20171;-49
2024/02/29 02:07:36;;;;;;;12.85;2.97;;;23.30;43.30;;;;;;5101182;28;20161;-48
2024/02/29 02:10:06;;;;;;;23.45;3.70;;;23.10;43.30;;;;;;5107997;28;20454;-48
2024/02/29 02:12:33;;;;;;;17.38;2.85;;;23.00;44.40;;;;;;5114910;28;20086;-48
2024/02/29 02:15:02;;;;;;;21.85;3.10;;;22.90;44.40;;;;;;5109246;28;20065;-48
2024/02/29 02:17:30;;;;;;;16.95;3.53;;;22.80;44.40;;;;;;5105952;28;20107;-49
2024/02/29 02:19:58;;;;;;;32.15;4.00;;;22.80;45.10;;;;;;5109826;28;20068;-53
2024/02/29 02:22:26;;;;;;;24.75;4.22;;;22.60;45.00;;;;;;5092676;28;20529;-50
2024/02/29 02:24:53;;;;;;;24.70;5.78;;;22.50;45.20;;;;;;5100317;28;20065;-47
2024/02/29 02:27:20;;;;;;;29.95;4.40;;;22.50;44.70;;;;;;5106360;28;20099;-48
2024/02/29 02:29:47;;;;;;;26.08;5.07;;;22.40;44.70;;;;;;5109262;28;20072;-53
2024/02/29 02:32:13;;;;;;;20.83;5.05;;;22.40;45.20;;;;;;5095519;28;20518;-51
2024/02/29 02:34:40;;;;;;;25.25;4.88;;;22.30;45.00;;;;;;5096289;28;20108;-51
2024/02/29 02:37:06;;;;;;;40.75;5.15;;;22.30;45.30;;;;;;5106972;28;20100;-48
2024/02/29 02:39:32;;;;;;;26.70;5.82;;;22.20;45.30;;;;;;5109790;28;20087;-51
2024/02/29 02:41:59;;;;;;;30.40;4.90;;;22.20;45.90;;;;;;5109043;28;20151;-50
2024/02/29 02:44:25;;;;;;;30.65;5.30;;;22.00;46.60;;;;;;5110990;28;20075;-50
2024/02/29 02:46:52;;;;;;;38.25;6.30;;;21.90;46.90;;;;;;5108962;28;20065;-48
2024/02/29 02:49:18;;;;;;;30.13;6.13;;;21.80;47.10;;;;;;5102972;28;20068;-48
2024/02/29 02:51:45;;;;;;;33.03;5.93;;;21.70;47.80;;;;;;5106391;28;20535;-51
2024/02/29 02:54:11;;;;;;;51.08;6.78;;;21.60;48.50;;;;;;5109403;28;20101;-48
2024/02/29 02:56:38;;;;;;;40.90;6.88;;;21.50;49.40;;;;;;5112964;28;20096;-49
2024/02/29 02:59:04;;;;;;;44.00;6.95;;;21.40;49.60;;;;;;5114097;28;20064;-50
2024/02/29 03:01:31;;;;;;;61.45;8.50;;;21.30;50.20;;;;;;5108131;28;20113;-53
2024/02/29 03:03:57;;;;;;;44.63;7.93;;;21.30;49.80;;;;;;5111651;28;20079;-52
2024/02/29 03:06:24;;;;;;;41.65;7.82;;;21.30;49.10;;;;;;5105945;28;20084;-51
2024/02/29 03:08:51;;;;;;;48.88;8.80;;;21.20;49.50;;;;;;5121970;27;20514;-47
2024/02/29 03:11:18;;;;;;;36.28;7.47;;;21.20;50.10;;;;;;5112368;28;20129;-49
2024/02/29 03:13:44;;;;;;;40.70;7.50;;;21.10;50.20;;;;;;5114247;28;20068;-49
2024/02/29 03:16:11;;;;;;;40.95;7.35;;;21.00;51.70;;;;;;5109581;28;20106;-47
2024/02/29 03:18:37;;;;;;;63.83;23.27;;;21.00;51.30;;;;;;5110409;28;20141;-49
2024/02/29 03:21:05;;;;;;;67.22;25.42;;;20.80;51.50;;;;;;5110950;28;20102;-48
2024/02/29 03:23:31;;;;;;;56.25;8.82;;;20.80;52.00;;;;;;5106095;28;20068;-53
2024/02/29 03:25:57;;;;;;;80.65;8.43;;;20.70;51.90;;;;;;5110222;28;20099;-48
2024/02/29 03:28:24;;;;;;;48.65;7.93;;;20.60;51.00;;;;;;5108308;28;20514;-48
2024/02/29 03:30:51;;;;;;;51.15;7.47;;;20.60;51.70;;;;;;5098449;28;20567;-47
2024/02/29 03:33:17;;;;;;;57.60;7.82;;;20.60;51.90;;;;;;5100198;28;20163;-48
2024/02/29 03:35:43;;;;;;;75.20;9.82;;;20.50;51.80;;;;;;5099399;28;20064;-48
2024/02/29 03:38:11;;;;;;;63.90;11.90;;;20.50;52.00;;;;;;5108020;28;20099;-50
2024/02/29 03:40:38;;;;;;;73.43;8.77;;;20.50;52.50;;;;;;5094558;28;20092;-49
2024/02/29 03:43:04;;;;;;;65.05;9.35;;;20.50;51.90;;;;;;5101965;28;20548;-48
2024/02/29 03:45:30;;;;;;;54.42;9.40;;;20.50;52.20;;;;;;5107250;28;20510;-48
2024/02/29 03:47:57;;;;;;;52.60;10.20;;;20.50;51.50;;;;;;5097245;28;20082;-47
2024/02/29 03:50:26;;;;;;;74.38;11.88;;;20.50;51.70;;;;;;5103677;28;20515;-47
2024/02/29 03:52:53;;;;;;;62.13;11.15;;;20.50;52.00;;;;;;5097278;28;20072;-49
2024/02/29 03:55:20;;;;;;;74.68;12.27;;;20.50;51.70;;;;;;5100710;28;20069;-49
2024/02/29 03:57:47;;;;;;;73.30;12.07;;;20.50;51.60;;;;;;5106363;28;20096;-50
2024/02/29 04:00:14;;;;;;;75.05;12.30;;;20.30;52.30;;;;;;5102672;27;20076;-48
2024/02/29 04:02:40;;;;;;;65.82;11.43;;;20.30;53.10;;;;;;5102902;28;20075;-49
2024/02/29 04:05:10;;;;;;;60.90;12.10;;;20.20;52.90;;;;;;5106895;28;20082;-54
2024/02/29 04:07:43;;;;;;;61.40;11.98;;;20.10;54.50;;;;;;5102517;27;20080;-48
2024/02/29 04:10:12;;;;;;;76.13;13.93;;;20.00;54.10;;;;;;5102536;28;20072;-51
2024/02/29 04:12:38;;;;;;;77.50;12.60;;;20.00;54.20;;;;;;5097534;27;20075;-47
2024/02/29 04:15:05;;;;;;;83.65;13.68;;;20.00;54.20;;;;;;5105430;27;20121;-52
2024/02/29 04:17:33;;;;;;;70.55;14.55;;;19.90;55.60;;;;;;5101152;28;20139;-49
2024/02/29 04:19:59;;;;;;;82.00;15.65;;;19.80;55.50;;;;;;5088458;28;20119;-50
2024/02/29 04:22:26;;;;;;;113.25;17.08;;;19.70;55.80;;;;;;5100116;28;20433;-48
2024/02/29 04:24:52;;;;;;;84.50;16.05;;;19.70;56.20;;;;;;5105857;28;20068;-48
2024/02/29 04:27:19;;;;;;;91.63;16.58;;;19.60;55.90;;;;;;5100360;28;20068;-47
2024/02/29 04:29:46;;;;;;;98.72;19.30;;;19.60;56.30;;;;;;5105721;28;20066;-49
2024/02/29 04:32:12;;;;;;;112.40;19.45;;;19.50;55.50;;;;;;5098513;28;20202;-48
2024/02/29 04:34:39;;;;;;;118.95;19.70;;;19.50;55.60;;;;;;5102164;28;20151;-49
2024/02/29 04:37:05;;;;;;;88.70;19.63;;;19.50;56.30;;;;;;5102369;28;20184;-50
2024/02/29 04:39:32;;;;;;;102.68;20.70;;;19.40;55.80;;;;;;5106165;28;20129;-48
2024/02/29 04:41:58;;;;;;;110.53;21.50;;;19.40;55.60;;;;;;5101273;28;20417;-49
2024/02/29 04:44:25;;;;;;;120.35;23.27;;;19.30;55.60;;;;;;5103753;28;20414;-49
2024/02/29 04:46:51;;;;;;;120.38;23.48;;;19.30;56.70;;;;;;5103636;28;20121;-50
2024/02/29 04:49:18;;;;;;;139.85;30.63;;;19.30;54.80;;;;;;5101254;28;20154;-50
2024/02/29 04:51:44;;;;;;;132.98;29.00;;;19.40;54.70;;;;;;5108794;28;20515;-50
2024/02/29 04:54:11;;;;;;;126.03;28.33;;;19.50;54.30;;;;;;5105513;28;20076;-56
2024/02/29 04:56:38;;;;;;;136.18;27.02;;;19.60;53.70;;;;;;5104380;28;20108;-54
2024/02/29 04:59:07;;;;;;;135.27;25.65;;;19.60;54.40;;;;;;5101180;28;20164;-53
2024/02/29 05:01:33;;;;;;;107.25;21.23;;;19.60;55.10;;;;;;5104439;28;20209;-52
2024/02/29 05:04:00;;;;;;;110.43;20.98;;;19.50;53.70;;;;;;5104646;28;20163;-48
2024/02/29 05:06:27;;;;;;;96.40;20.45;;;19.60;52.70;;;;;;5103042;28;20072;-49
2024/02/29 05:08:54;;;;;;;99.85;21.58;;;19.70;52.90;;;;;;5101032;28;20061;-52
2024/02/29 05:11:21;;;;;;;116.32;21.65;;;19.60;53.20;;;;;;5103800;28;20068;-49
2024/02/29 05:13:48;;;;;;;110.82;20.20;;;19.50;53.90;;;;;;5098045;28;20157;-50
2024/02/29 05:16:19;;;;;;;140.15;20.73;;;19.40;53.80;;;;;;5107952;28;20129;-49
2024/02/29 05:18:45;;;;;;;88.03;18.70;;;19.40;54.20;;;;;;5105973;28;20114;-55
2024/02/29 05:21:13;;;;;;;111.07;18.83;;;19.40;54.60;;;;;;5105166;28;20548;-48
2024/02/29 05:23:39;;;;;;;104.53;17.90;;;19.30;55.50;;;;;;5101737;28;20518;-50
2024/02/29 05:26:07;;;;;;;101.25;19.38;;;19.30;54.90;;;;;;5098669;28;20100;-49
2024/02/29 05:28:34;;;;;;;106.20;18.50;;;19.20;55.80;;;;;;5097281;28;20080;-58
2024/02/29 05:31:00;;;;;;;104.30;17.52;;;19.20;55.90;;;;;;5103659;28;20415;-48
2024/02/29 05:33:27;;;;;;;114.85;19.42;;;19.10;56.80;;;;;;5104512;28;20064;-52
2024/02/29 05:35:53;;;;;;;87.60;18.58;;;19.00;57.30;;;;;;5105871;28;20121;-51
2024/02/29 05:38:20;;;;;;;98.25;17.75;;;19.00;57.80;;;;;;5105594;28;20501;-51
2024/02/29 05:40:49;;;;;;;96.00;19.42;;;19.00;57.90;;;;;;5104801;28;20104;-52
2024/02/29 05:43:16;;;;;;;113.38;19.55;;;18.90;58.50;;;;;;5107067;28;20064;-51
2024/02/29 05:45:42;;;;;;;106.95;19.65;;;18.80;57.70;;;;;;5102992;28;20075;-52
2024/02/29 05:48:09;;;;;;;119.93;18.00;;;18.80;57.70;;;;;;5103939;28;20064;-47
2024/02/29 05:50:35;;;;;;;99.38;19.55;;;18.70;58.70;;;;;;5103327;28;20146;-48
2024/02/29 05:53:02;;;;;;;88.85;16.98;;;18.70;59.30;;;;;;5105756;28;20064;-47
2024/02/29 05:55:28;;;;;;;101.57;17.52;;;18.70;59.40;;;;;;5107867;28;20090;-47
2024/02/29 05:57:55;;;;;;;113.35;19.23;;;18.60;59.50;;;;;;5108893;28;20151;-51
2024/02/29 06:00:24;;;;;;;78.13;15.90;;;18.60;58.90;;;;;;5106591;28;20582;-49
2024/02/29 06:02:51;;;;;;;91.82;16.95;;;18.60;58.80;;;;;;5096960;28;20514;-49
2024/02/29 06:05:19;;;;;;;105.82;18.33;;;18.50;59.00;;;;;;5103486;28;20070;-47
2024/02/29 06:07:45;;;;;;;77.47;16.95;;;18.60;59.00;;;;;;5102857;28;20073;-50
2024/02/29 06:10:12;;;;;;;92.85;17.17;;;18.60;59.20;;;;;;5110504;28;20158;-49
2024/02/29 06:12:38;;;;;;;116.47;19.42;;;18.60;59.30;;;;;;5112176;28;20079;-50
2024/02/29 06:15:06;;;;;;;85.85;18.35;;;18.50;61.10;;;;;;5109870;27;20089;-50
2024/02/29 06:17:33;;;;;;;99.38;21.60;;;18.40;60.40;;;;;;5102919;28;20113;-47
2024/02/29 06:19:59;;;;;;;102.35;20.08;;;18.30;60.20;;;;;;5099994;28;20072;-48
2024/02/29 06:22:26;;;;;;;126.10;21.60;;;18.40;60.50;;;;;;5100611;28;20072;-50
2024/02/29 06:24:53;;;;;;;89.25;18.75;;;18.40;61.20;;;;;;5100862;28;20068;-48
2024/02/29 06:27:25;;;;;;;113.55;19.05;;;18.20;61.60;;;;;;5108483;28;20560;-48
2024/02/29 06:29:53;;;;;;;110.13;18.58;;;18.20;63.00;;;;;;5105491;28;20080;-50
2024/02/29 06:32:19;;;;;;;87.72;18.23;;;18.10;63.30;;;;;;5094222;28;20065;-49
2024/02/29 06:34:46;;;;;;;96.80;18.02;;;18.10;63.10;;;;;;5104395;28;20079;-49
2024/02/29 06:37:13;;;;;;;102.40;18.40;;;18.00;63.20;;;;;;5100719;28;20108;-48
2024/02/29 06:39:39;;;;;;;101.32;19.20;;;18.00;63.80;;;;;;5110998;28;20064;-52
2024/02/29 06:42:06;;;;;;;119.70;17.92;;;18.00;64.70;;;;;;5108995;28;20064;-50
2024/02/29 06:44:32;;;;;;;112.90;19.20;;;18.00;64.80;;;;;;5102862;28;20159;-50
2024/02/29 06:46:59;;;;;;;105.70;18.30;;;18.00;64.30;;;;;;5094406;28;20518;-51
2024/02/29 06:49:25;;;;;;;107.22;18.77;;;18.00;64.80;;;;;;5104530;28;20102;-50
2024/02/29 06:51:52;;;;;;;102.63;19.23;;;18.00;65.00;;;;;;5103765;27;20498;-53
2024/02/29 06:54:19;;;;;;;93.95;20.63;;;18.00;65.10;;;;;;5112036;28;20080;-50
2024/02/29 06:56:46;;;;;;;94.80;20.20;;;17.90;67.00;;;;;;5091341;28;20161;-50
2024/02/29 06:59:12;;;;;;;93.78;19.60;;;17.90;66.10;;;;;;5102637;28;20071;-49
2024/02/29 07:01:39;;;;;;;99.10;19.65;;;17.80;66.70;;;;;;5110358;27;20071;-50
2024/02/29 07:04:07;;;;;;;90.93;18.40;;;17.80;66.40;;;;;;5105990;28;20076;-51
2024/02/29 07:06:34;;;;;;;88.35;17.52;;;17.80;66.30;;;;;;5109057;28;20073;-49
2024/02/29 07:09:01;;;;;;;90.93;16.75;;;17.80;66.40;;;;;;5108885;28;20064;-49
2024/02/29 07:11:30;;;;;;;82.07;17.25;;;17.80;68.20;;;;;;5105767;28;20403;-51
2024/02/29 07:13:58;;;;;;;96.82;30.38;;;17.70;68.30;;;;;;5097841;28;20068;-47
2024/02/29 07:16:25;;;;;;;82.60;16.65;;;17.70;68.20;;;;;;5101961;28;20108;-49
2024/02/29 07:18:52;;;;;;;87.75;18.27;;;17.60;68.80;;;;;;5102255;28;20151;-48
2024/02/29 07:21:18;;;;;;;88.68;16.85;;;17.60;68.40;;;;;;5107507;28;20591;-48
2024/02/29 07:23:45;;;;;;;83.72;16.98;;;17.60;68.60;;;;;;5107478;28;20076;-49
2024/02/29 07:26:12;;;;;;;86.30;17.98;;;17.60;68.60;;;;;;5095615;28;20072;-50
2024/02/29 07:28:38;;;;;;;83.30;17.77;;;17.60;68.90;;;;;;5102978;28;20064;-48
2024/02/29 07:31:05;;;;;;;98.60;17.00;;;17.50;68.90;;;;;;5096209;28;20065;-51
2024/02/29 07:33:35;;;;;;;84.70;17.23;;;17.50;69.80;;;;;;5100165;28;20076;-49
2024/02/29 07:36:01;;;;;;;90.78;18.13;;;17.50;70.10;;;;;;5099750;28;20076;-51
2024/02/29 07:38:28;;;;;;;82.68;16.48;;;17.50;70.40;;;;;;5106278;28;20523;-48
2024/02/29 07:40:54;;;;;;;102.80;17.42;;;17.40;70.90;;;;;;5111003;27;20064;-48
2024/02/29 07:43:21;;;;;;;81.43;16.55;;;17.40;71.60;;;;;;5103782;28;20518;-47
2024/02/29 07:45:47;;;;;;;80.43;16.42;;;17.30;71.30;;;;;;5102446;28;20480;-48
2024/02/29 07:48:14;;;;;;;96.15;18.30;;;17.30;71.30;;;;;;5105991;28;20068;-48
2024/02/29 07:50:41;;;;;;;69.88;17.40;;;17.30;71.80;;;;;;5104335;28;20133;-48
2024/02/29 07:53:08;;;;;;;96.55;18.50;;;17.30;71.90;;;;;;5104591;28;20072;-52
2024/02/29 07:55:35;;;;;;;86.22;19.08;;;17.30;72.20;;;;;;5110630;28;20064;-49
2024/02/29 07:58:03;;;;;;;95.68;20.10;;;17.30;72.50;;;;;;5109095;28;20128;-48
2024/02/29 08:00:29;;;;;;;88.32;22.33;;;17.20;72.40;;;;;;5093479;28;20084;-49
2024/02/29 08:02:56;;;;;;;100.25;23.83;;;17.20;72.20;;;;;;5108817;28;20060;-53
2024/02/29 08:05:23;;;;;;;98.93;24.88;;;17.20;72.40;;;;;;5106776;28;20072;-51
2024/02/29 08:07:49;;;;;;;111.90;24.55;;;17.10;72.90;;;;;;5101793;28;20111;-48
2024/02/29 08:10:16;;;;;;;98.20;25.13;;;17.10;73.10;;;;;;5105104;28;20072;-50
2024/02/29 08:12:44;;;;;;;125.00;24.88;;;17.10;72.70;;;;;;5098605;28;20064;-50
2024/02/29 08:15:10;;;;;;;109.63;23.83;;;16.90;72.20;;;;;;5102721;28;20080;-50
2024/02/29 08:17:37;;;;;;;99.90;22.98;;;16.90;72.10;;;;;;5098941;28;20211;-53
2024/02/29 08:20:05;;;;;;;101.43;22.40;;;16.90;71.30;;;;;;5101406;28;20071;-50
2024/02/29 08:22:32;;;;;;;125.30;24.02;;;16.90;71.60;;;;;;5106690;28;20092;-52
2024/02/29 08:24:59;;;;;;;99.03;21.50;;;16.80;71.30;;;;;;5105846;28;20108;-53
2024/02/29 08:27:25;;;;;;;94.18;21.48;;;16.90;71.60;;;;;;5098918;28;20072;-49
2024/02/29 08:29:52;;;;;;;102.78;22.75;;;16.90;72.30;;;;;;5084333;28;20072;-52
2024/02/29 08:32:18;;;;;;;97.13;20.98;;;16.90;72.90;;;;;;5094724;28;20075;-50
2024/02/29 08:34:45;;;;;;;73.53;19.73;;;17.00;73.80;;;;;;5104302;28;20068;-53
2024/02/29 08:37:12;;;;;;;70.88;18.60;;;17.30;73.20;;;;;;5100533;28;20092;-50
2024/02/29 08:39:40;;;;;;;87.22;19.40;;;17.40;72.80;;;;;;5109684;28;20507;-52
2024/02/29 08:42:09;;;;;;;83.10;18.25;;;17.50;73.50;;;;;;5108590;28;20068;-51
2024/02/29 08:44:36;;;;;;;77.28;19.80;;;17.60;73.40;;;;;;5110822;28;20238;-50
2024/02/29 08:47:04;;;;;;;82.75;21.42;;;17.60;72.80;;;;;;5108093;28;20476;-49
2024/02/29 08:49:31;;;;;;;67.40;22.88;;;17.70;72.50;;;;;;5104247;28;20117;-54
2024/02/29 08:51:57;;;;;;;85.78;23.90;;;17.60;72.80;;;;;;5112265;28;20068;-53
2024/02/29 08:54:23;;;;;;;85.80;23.08;;;17.50;72.90;;;;;;5114343;28;20072;-54
2024/02/29 08:56:50;;;;;;;90.07;22.45;;;17.60;72.30;;;;;;5114296;28;20148;-51
2024/02/29 08:59:16;;;;;;;100.32;23.83;;;17.60;71.70;;;;;;5098996;28;20080;-49
2024/02/29 09:01:43;;;;;;;105.03;24.30;;;17.70;70.40;;;;;;5103835;28;20071;-48
2024/02/29 09:04:09;;;;;;;98.80;24.15;;;17.70;69.40;;;;;;5099824;28;20072;-48
2024/02/29 09:06:36;;;;;;;74.25;21.20;;;17.80;67.70;;;;;;5108481;28;20075;-49
2024/02/29 09:09:02;;;;;;;82.45;22.25;;;17.70;68.10;;;;;;5099685;28;20143;-52
2024/02/29 09:11:29;;;;;;;72.35;22.35;;;17.60;68.00;;;;;;5104273;28;20075;-52
2024/02/29 09:13:56;;;;;;;79.20;20.70;;;17.60;67.10;;;;;;5110074;28;20087;-49
2024/02/29 09:16:23;;;;;;;85.40;22.70;;;17.60;67.70;;;;;;5106972;28;20103;-48
2024/02/29 09:18:49;;;;;;;79.68;20.05;;;17.60;67.50;;;;;;5106536;28;20076;-50
2024/02/29 09:21:16;;;;;;;75.82;20.38;;;17.50;68.00;;;;;;5100818;28;20076;-52
2024/02/29 09:23:43;;;;;;;86.75;20.23;;;17.40;68.20;;;;;;5101527;28;20091;-49
2024/02/29 09:26:12;;;;;;;76.47;20.73;;;17.30;68.50;;;;;;5108857;28;20075;-50
2024/02/29 09:28:39;;;;;;;90.55;20.75;;;17.30;69.90;;;;;;5107818;28;20064;-61
2024/02/29 09:31:05;;;;;;;83.32;21.05;;;17.20;69.00;;;;;;5101744;28;20128;-50
2024/02/29 09:33:32;;;;;;;78.05;21.55;;;17.20;68.70;;;;;;5105592;28;20060;-51
2024/02/29 09:35:58;;;;;;;74.32;19.92;;;17.20;68.60;;;;;;5105847;28;20079;-53
2024/02/29 09:38:25;;;;;;;70.57;18.00;;;17.30;68.40;;;;;;5108457;28;20538;-53
2024/02/29 09:40:52;;;;;;;69.30;17.70;;;17.30;69.50;;;;;;5111558;28;20531;-49
2024/02/29 09:43:18;;;;;;;68.55;16.02;;;17.30;69.70;;;;;;5108556;28;20075;-51
2024/02/29 09:45:46;;;;;;;59.22;17.48;;;17.20;69.50;;;;;;5107932;28;20868;-58
2024/02/29 09:48:15;;;;;;;53.25;15.15;;;17.20;70.40;;;;;;5102900;28;20068;-50
2024/02/29 09:50:42;;;;;;;62.00;16.02;;;17.10;71.50;;;;;;5107349;28;20436;-51
2024/02/29 09:53:10;;;;;;;53.88;16.13;;;17.00;71.60;;;;;;5109676;27;20073;-51
2024/02/29 09:55:37;;;;;;;66.38;16.83;;;17.00;71.70;;;;;;5111148;28;20115;-48
2024/02/29 09:58:05;;;;;;;55.03;16.88;;;16.90;72.80;;;;;;5108223;28;20141;-48
2024/02/29 10:00:32;;;;;;;69.40;16.25;;;16.90;73.10;;;;;;5111887;28;20068;-52
2024/02/29 10:03:00;;;;;;;55.40;15.70;;;17.00;72.40;;;;;;5111081;28;20064;-51
2024/02/29 10:05:27;;;;;;;53.30;15.43;;;16.90;73.00;;;;;;5109183;28;20069;-50
2024/02/29 10:07:53;;;;;;;49.20;15.77;;;16.90;73.70;;;;;;5107311;28;20425;-48
2024/02/29 10:10:20;;;;;;;57.35;17.05;;;16.80;74.30;;;;;;5111346;28;20072;-49
2024/02/29 10:12:56;;;;;;;55.70;15.50;;;16.80;76.20;;;;;;5111180;28;20068;-53
2024/02/29 10:15:27;;;;;;;50.73;15.80;;;16.80;78.30;;;;;;5109941;28;21326;-51
2024/02/29 10:17:55;;;;;;;46.22;14.90;;;16.70;79.70;;;;;;5102960;28;21777;-48
2024/02/29 10:20:22;;;;;;;42.95;16.20;;;16.70;80.70;;;;;;5095293;28;20105;-48
2024/02/29 10:22:49;;;;;;;43.05;14.50;;;16.70;82.90;;;;;;5107709;28;20140;-48
2024/02/29 10:25:16;;;;;;;45.22;14.15;;;16.70;84.60;;;;;;5098991;28;20371;-49
2024/02/29 10:27:42;;;;;;;50.85;15.50;;;16.70;86.60;;;;;;5102102;28;20083;-49
2024/02/29 10:30:13;;;;;;;48.75;15.23;;;16.60;88.10;;;;;;5108302;28;20084;-48
2024/02/29 10:32:43;;;;;;;52.83;14.60;;;16.60;89.80;;;;;;5102228;28;20163;-48
2024/02/29 10:35:20;;;;;;;41.33;13.98;;;16.60;90.50;;;;;;5096409;28;20537;-49
2024/02/29 10:37:49;;;;;;;45.35;14.90;;;16.50;91.10;;;;;;5104906;28;21072;-50
2024/02/29 10:40:16;;;;;;;42.05;15.38;;;16.50;91.60;;;;;;5106758;27;20072;-49
2024/02/29 10:42:43;;;;;;;45.15;15.30;;;16.50;92.20;;;;;;5109304;28;20083;-56
2024/02/29 10:45:14;;;;;;;42.58;15.90;;;16.60;92.40;;;;;;5112158;28;20060;-54
2024/02/29 10:48:09;;;;;;;42.80;15.30;;;16.60;92.60;;;;;;5108647;28;20130;-52
2024/02/29 10:50:48;;;;;;;34.30;14.52;;;16.50;93.30;;;;;;5056835;28;20590;-51
2024/02/29 10:53:38;;;;;;;36.47;16.45;;;16.30;94.20;;;;;;5110883;28;20080;-51
2024/02/29 10:56:23;;;;;;;45.05;16.90;;;16.20;94.90;;;;;;5103783;28;20105;-52
2024/02/29 10:59:12;;;;;;;48.10;16.38;;;16.20;95.40;;;;;;5104067;28;20522;-50
2024/02/29 11:01:39;;;;;;;40.67;16.35;;;16.40;96.10;;;;;;5098299;28;20081;-52
2024/02/29 11:04:06;;;;;;;44.92;15.77;;;16.50;96.20;;;;;;5102737;28;20099;-50
2024/02/29 11:06:38;;;;;;;43.25;12.90;;;16.40;96.20;;;;;;5110266;28;20064;-50
2024/02/29 11:09:09;;;;;;;34.58;12.05;;;16.40;96.90;;;;;;5106877;28;20076;-52
2024/02/29 11:11:36;;;;;;;24.85;10.90;;;16.40;97.30;;;;;;5110531;28;20064;-52
2024/02/29 11:14:09;;;;;;;27.48;10.27;;;16.30;97.90;;;;;;5108632;28;20151;-52
2024/02/29 11:16:43;;;;;;;22.15;8.98;;;16.30;98.70;;;;;;5110484;28;20112;-52
2024/02/29 11:19:18;;;;;;;25.08;8.80;;;16.30;99.50;;;;;;5108811;28;20080;-48
2024/02/29 11:21:45;;;;;;;20.70;8.13;;;16.20;99.90;;;;;;5092383;28;20076;-49
2024/02/29 11:24:22;;;;;;;22.90;8.27;;;16.10;99.90;;;;;;5105679;28;20073;-49
2024/02/29 11:26:56;;;;;;;20.02;8.05;;;16.20;99.90;;;;;;5108555;28;20099;-48
2024/02/29 11:29:22;;;;;;;21.40;8.05;;;16.10;99.90;;;;;;5106769;28;20128;-50
2024/02/29 11:31:55;;;;;;;18.00;6.95;;;16.10;99.90;;;;;;5101106;28;20091;-50
2024/02/29 11:34:22;;;;;;;24.02;7.35;;;16.10;99.90;;;;;;5106138;28;20147;-51
2024/02/29 11:36:49;;;;;;;18.48;7.30;;;16.10;99.90;;;;;;5108237;28;20563;-48
2024/02/29 11:39:22;;;;;;;16.88;6.68;;;16.00;99.90;;;;;;5110142;28;20095;-49
2024/02/29 11:41:49;;;;;;;15.05;7.20;;;16.00;99.90;;;;;;5100863;28;20068;-48
2024/02/29 11:44:16;;;;;;;20.48;7.32;;;16.00;99.90;;;;;;5107506;28;20080;-51
2024/02/29 11:46:47;;;;;;;21.27;6.85;;;16.00;99.90;;;;;;5103436;28;20171;-48
2024/02/29 11:49:17;;;;;;;17.90;7.18;;;15.90;99.90;;;;;;5080149;28;20080;-57
2024/02/29 11:51:45;;;;;;;18.83;7.72;;;15.90;99.90;;;;;;5109731;28;20095;-57
2024/02/29 11:54:13;;;;;;;19.52;7.47;;;15.80;99.90;;;;;;5108478;28;20540;-52
2024/02/29 11:56:40;;;;;;;21.25;8.40;;;15.80;99.90;;;;;;5102184;28;20159;-54
2024/02/29 11:59:09;;;;;;;19.60;7.10;;;15.80;99.90;;;;;;5103564;28;20076;-53
2024/02/29 12:01:36;;;;;;;22.00;8.15;;;15.90;99.90;;;;;;5101358;27;20425;-50
2024/02/29 12:04:04;;;;;;;23.95;7.97;;;15.80;99.90;;;;;;5109608;28;20147;-50
2024/02/29 12:06:31;;;;;;;34.42;22.05;;;15.80;99.90;;;;;;5108741;28;20080;-50
2024/02/29 12:08:59;;;;;;;15.27;6.85;;;15.70;99.90;;;;;;5109883;28;20076;-52
2024/02/29 12:11:25;;;;;;;14.75;7.10;;;15.70;99.90;;;;;;5099767;28;20549;-50
2024/02/29 12:13:52;;;;;;;18.95;8.38;;;15.60;99.90;;;;;;5107599;28;20147;-48
2024/02/29 12:16:19;;;;;;;22.88;9.07;;;15.60;99.90;;;;;;5108861;28;20138;-50
2024/02/29 12:18:45;;;;;;;21.75;9.80;;;15.60;99.90;;;;;;5106984;28;20104;-53
2024/02/29 12:21:12;;;;;;;21.70;10.25;;;15.60;99.90;;;;;;5109933;28;20621;-52
2024/02/29 12:23:41;;;;;;;17.10;8.45;;;15.60;99.90;;;;;;5108672;28;20072;-53
2024/02/29 12:26:12;;;;;;;17.48;7.63;;;15.70;99.90;;;;;;5104541;28;20137;-51
2024/02/29 12:28:39;;;;;;;22.13;8.48;;;15.60;99.90;;;;;;5108927;28;20069;-49
2024/02/29 12:31:07;;;;;;;15.02;7.05;;;15.50;99.90;;;;;;5092113;28;20209;-54